sensor_id;sensor_type;location;lat;lon;timestamp;pressure;altitude;pressure_sealevel;temperature;humidity
39405;BME280;25121;51.090;17.038;2023-02-16T00:21:16;100903.63;;;2.38;66.58
39405;BME280;25121;51.090;17.038;2023-02-16T00:26:28;100907.53;;;2.32;66.82
39405;BME280;25121;51.090;17.038;2023-02-16T00:28:27;100904.97;;;2.31;66.64
39405;BME280;25121;51.090;17.038;2023-02-16T00:33:25;100881.28;;;2.15;66.50
39405;BME280;25121;51.090;17.038;2023-02-16T00:35:13;100889.25;;;2.15;66.81
39405;BME280;25121;51.090;17.038;2023-02-16T00:45:08;100887.03;;;2.09;66.96
39405;BME280;25121;51.090;17.038;2023-02-16T00:46:44;100905.69;;;2.20;66.87
39405;BME280;25121;51.090;17.038;2023-02-16T00:48:31;100892.09;;;2.12;66.80
39405;BME280;25121;51.090;17.038;2023-02-16T00:49:56;100901.44;;;2.18;66.99
39405;BME280;25121;51.090;17.038;2023-02-16T00:51:22;100886.16;;;2.08;66.92
39405;BME280;25121;51.090;17.038;2023-02-16T00:53:11;100890.50;;;2.09;67.07
39405;BME280;25121;51.090;17.038;2023-02-16T00:54:36;100901.44;;;2.18;67.18
39405;BME280;25121;51.090;17.038;2023-02-16T00:56:18;100905.63;;;2.22;67.01
39405;BME280;25121;51.090;17.038;2023-02-16T00:58:41;100899.84;;;2.15;66.84
39405;BME280;25121;51.090;17.038;2023-02-16T01:00:14;100896.25;;;2.16;66.99
39405;BME280;25121;51.090;17.038;2023-02-16T01:01:39;100911.84;;;2.21;67.04
39405;BME280;25121;51.090;17.038;2023-02-16T01:03:10;100894.56;;;2.15;67.16
39405;BME280;25121;51.090;17.038;2023-02-16T01:04:42;100890.00;;;2.17;66.98
39405;BME280;25121;51.090;17.038;2023-02-16T01:06:08;100885.84;;;2.13;67.20
39405;BME280;25121;51.090;17.038;2023-02-16T01:07:51;100871.94;;;2.09;66.78
39405;BME280;25121;51.090;17.038;2023-02-16T01:09:35;100891.50;;;2.21;66.96
39405;BME280;25121;51.090;17.038;2023-02-16T01:11:21;100871.84;;;2.11;66.89
39405;BME280;25121;51.090;17.038;2023-02-16T01:12:46;100889.88;;;2.19;67.04
39405;BME280;25121;51.090;17.038;2023-02-16T01:14:29;100872.78;;;2.10;67.17
39405;BME280;25121;51.090;17.038;2023-02-16T01:16:10;100887.34;;;2.17;67.18
39405;BME280;25121;51.090;17.038;2023-02-16T01:17:36;100879.91;;;2.09;67.13
39405;BME280;25121;51.090;17.038;2023-02-16T01:19:03;100875.44;;;2.10;67.20
39405;BME280;25121;51.090;17.038;2023-02-16T01:20:33;100878.56;;;2.17;67.26
39405;BME280;25121;51.090;17.038;2023-02-16T01:21:57;100893.28;;;2.21;67.28
39405;BME280;25121;51.090;17.038;2023-02-16T01:23:29;100876.28;;;2.10;67.29
39405;BME280;25121;51.090;17.038;2023-02-16T01:24:54;100885.44;;;2.19;67.22
39405;BME280;25121;51.090;17.038;2023-02-16T01:26:28;100889.69;;;2.22;67.13
39405;BME280;25121;51.090;17.038;2023-02-16T01:27:53;100890.09;;;2.15;67.20
39405;BME280;25121;51.090;17.038;2023-02-16T01:29:37;100887.44;;;2.15;67.14
39405;BME280;25121;51.090;17.038;2023-02-16T01:31:04;100890.53;;;2.22;67.04
39405;BME280;25121;51.090;17.038;2023-02-16T01:32:27;100890.84;;;2.18;66.99
39405;BME280;25121;51.090;17.038;2023-02-16T01:33:51;100888.19;;;2.18;67.01
39405;BME280;25121;51.090;17.038;2023-02-16T01:35:15;100895.94;;;2.21;67.08
39405;BME280;25121;51.090;17.038;2023-02-16T01:37:15;100869.38;;;2.08;66.91
39405;BME280;25121;51.090;17.038;2023-02-16T01:39:16;100871.41;;;2.04;67.09
39405;BME280;25121;51.090;17.038;2023-02-16T01:41:49;100880.75;;;2.10;66.84
39405;BME280;25121;51.090;17.038;2023-02-16T01:43:40;100877.25;;;2.09;67.11
39405;BME280;25121;51.090;17.038;2023-02-16T01:45:14;100884.25;;;2.10;67.39
39405;BME280;25121;51.090;17.038;2023-02-16T01:46:53;100860.34;;;1.98;66.91
39405;BME280;25121;51.090;17.038;2023-02-16T01:48:35;100865.06;;;2.07;67.04
39405;BME280;25121;51.090;17.038;2023-02-16T01:50:19;100859.28;;;2.00;67.15
39405;BME280;25121;51.090;17.038;2023-02-16T01:52:20;100860.97;;;2.01;67.21
39405;BME280;25121;51.090;17.038;2023-02-16T01:53:49;100843.59;;;1.97;67.39
39405;BME280;25121;51.090;17.038;2023-02-16T01:55:25;100853.03;;;2.01;67.24
39405;BME280;25121;51.090;17.038;2023-02-16T01:57:21;100862.63;;;2.04;67.28
39405;BME280;25121;51.090;17.038;2023-02-16T01:58:49;100858.91;;;2.06;67.35
39405;BME280;25121;51.090;17.038;2023-02-16T02:00:18;100854.84;;;2.01;67.26
39405;BME280;25121;51.090;17.038;2023-02-16T02:01:51;100857.19;;;2.05;67.35
39405;BME280;25121;51.090;17.038;2023-02-16T02:03:22;100854.66;;;2.04;67.22
39405;BME280;25121;51.090;17.038;2023-02-16T02:05:17;100862.50;;;2.05;67.30
39405;BME280;25121;51.090;17.038;2023-02-16T02:07:02;100852.84;;;2.04;67.36
39405;BME280;25121;51.090;17.038;2023-02-16T02:08:29;100847.72;;;2.01;67.41
39405;BME280;25121;51.090;17.038;2023-02-16T02:10:02;100853.03;;;2.01;67.35
39405;BME280;25121;51.090;17.038;2023-02-16T02:11:31;100862.50;;;2.05;67.48
39405;BME280;25121;51.090;17.038;2023-02-16T02:12:57;100850.94;;;2.06;67.50
39405;BME280;25121;51.090;17.038;2023-02-16T02:14:30;100834.06;;;1.94;67.44
39405;BME280;25121;51.090;17.038;2023-02-16T02:15:53;100855.28;;;2.07;67.36
39405;BME280;25121;51.090;17.038;2023-02-16T02:17:20;100840.44;;;2.05;67.29
39405;BME280;25121;51.090;17.038;2023-02-16T02:18:43;100843.19;;;2.03;67.41
39405;BME280;25121;51.090;17.038;2023-02-16T02:20:12;100842.88;;;2.08;67.28
39405;BME280;25121;51.090;17.038;2023-02-16T02:21:57;100829.16;;;2.01;67.32
39405;BME280;25121;51.090;17.038;2023-02-16T02:24:08;100841.06;;;2.08;67.35
39405;BME280;25121;51.090;17.038;2023-02-16T02:25:51;100825.78;;;1.99;67.30
39405;BME280;25121;51.090;17.038;2023-02-16T02:27:22;100837.69;;;2.06;67.29
39405;BME280;25121;51.090;17.038;2023-02-16T02:28:52;100831.72;;;2.03;67.29
39405;BME280;25121;51.090;17.038;2023-02-16T02:30:31;100836.94;;;2.04;67.35
39405;BME280;25121;51.090;17.038;2023-02-16T02:32:03;100825.97;;;1.96;67.41
39405;BME280;25121;51.090;17.038;2023-02-16T02:33:43;100819.94;;;1.94;67.13
39405;BME280;25121;51.090;17.038;2023-02-16T02:35:28;100833.44;;;2.04;67.47
39405;BME280;25121;51.090;17.038;2023-02-16T02:37:02;100830.22;;;1.99;67.15
39405;BME280;25121;51.090;17.038;2023-02-16T02:38:33;100834.47;;;2.01;67.24
39405;BME280;25121;51.090;17.038;2023-02-16T02:40:06;100833.63;;;2.01;67.12
39405;BME280;25121;51.090;17.038;2023-02-16T02:41:34;100825.13;;;1.96;67.22
39405;BME280;25121;51.090;17.038;2023-02-16T02:43:20;100826.84;;;1.97;67.31
39405;BME280;25121;51.090;17.038;2023-02-16T02:44:47;100827.16;;;1.92;67.34
39405;BME280;25121;51.090;17.038;2023-02-16T02:46:15;100823.53;;;1.93;67.04
39405;BME280;25121;51.090;17.038;2023-02-16T02:47:42;100821.94;;;1.90;67.18
39405;BME280;25121;51.090;17.038;2023-02-16T02:49:05;100831.28;;;1.96;67.10
39405;BME280;25121;51.090;17.038;2023-02-16T02:50:43;100830.00;;;1.89;67.11
39405;BME280;25121;51.090;17.038;2023-02-16T02:52:30;100814.41;;;1.84;67.13
39405;BME280;25121;51.090;17.038;2023-02-16T02:53:51;100835.94;;;1.92;67.06
39405;BME280;25121;51.090;17.038;2023-02-16T02:55:46;100825.66;;;1.88;66.88
39405;BME280;25121;51.090;17.038;2023-02-16T02:57:33;100806.09;;;1.76;67.17
39405;BME280;25121;51.090;17.038;2023-02-16T02:59:16;100819.81;;;1.83;67.25
39405;BME280;25121;51.090;17.038;2023-02-16T03:00:58;100830.09;;;1.87;67.15
39405;BME280;25121;51.090;17.038;2023-02-16T03:02:24;100814.91;;;1.77;67.15
39405;BME280;25121;51.090;17.038;2023-02-16T03:03:57;100825.84;;;1.85;67.29
39405;BME280;25121;51.090;17.038;2023-02-16T03:05:26;100826.16;;;1.80;67.23
39405;BME280;25121;51.090;17.038;2023-02-16T03:06:52;100832.09;;;1.84;67.39
39405;BME280;25121;51.090;17.038;2023-02-16T03:08:34;100818.41;;;1.77;67.41
39405;BME280;25121;51.090;17.038;2023-02-16T03:09:57;100838.25;;;1.84;67.45
39405;BME280;25121;51.090;17.038;2023-02-16T03:11:43;100824.47;;;1.79;67.47
39405;BME280;25121;51.090;17.038;2023-02-16T03:13:26;100820.66;;;1.83;67.26
39405;BME280;25121;51.090;17.038;2023-02-16T03:15:16;100813.97;;;1.78;67.00
39405;BME280;25121;51.090;17.038;2023-02-16T03:16:48;100820.94;;;1.79;67.46
39405;BME280;25121;51.090;17.038;2023-02-16T03:18:27;100823.59;;;1.79;67.44
39405;BME280;25121;51.090;17.038;2023-02-16T03:20:11;100808.75;;;1.76;67.20
39405;BME280;25121;51.090;17.038;2023-02-16T03:21:58;100793.56;;;1.65;67.53
39405;BME280;25121;51.090;17.038;2023-02-16T03:23:41;100813.63;;;1.69;67.46
39405;BME280;25121;51.090;17.038;2023-02-16T03:25:38;100814.47;;;1.70;67.57
39405;BME280;25121;51.090;17.038;2023-02-16T03:27:24;100820.41;;;1.73;67.51
39405;BME280;25121;51.090;17.038;2023-02-16T03:29:12;100819.56;;;1.73;67.68
39405;BME280;25121;51.090;17.038;2023-02-16T03:30:46;100820.41;;;1.73;67.71
39405;BME280;25121;51.090;17.038;2023-02-16T03:32:11;100813.41;;;1.72;67.57
39405;BME280;25121;51.090;17.038;2023-02-16T03:33:33;100819.69;;;1.71;67.37
39405;BME280;25121;51.090;17.038;2023-02-16T03:34:59;100795.47;;;1.63;67.69
39405;BME280;25121;51.090;17.038;2023-02-16T03:36:30;100815.09;;;1.73;67.65
39405;BME280;25121;51.090;17.038;2023-02-16T03:37:54;100822.19;;;1.73;67.65
39405;BME280;25121;51.090;17.038;2023-02-16T03:39:17;100803.31;;;1.65;67.63
39405;BME280;25121;51.090;17.038;2023-02-16T03:40:42;100811.59;;;1.73;67.92
39405;BME280;25121;51.090;17.038;2023-02-16T03:42:05;100814.16;;;1.75;67.59
39405;BME280;25121;51.090;17.038;2023-02-16T03:43:28;100825.53;;;1.77;67.56
39405;BME280;25121;51.090;17.038;2023-02-16T03:44:49;100823.03;;;1.73;67.55
39405;BME280;25121;51.090;17.038;2023-02-16T03:46:14;100804.38;;;1.62;67.83
39405;BME280;25121;51.090;17.038;2023-02-16T03:47:36;100818.91;;;1.69;67.66
39405;BME280;25121;51.090;17.038;2023-02-16T03:48:58;100805.84;;;1.66;67.85
39405;BME280;25121;51.090;17.038;2023-02-16T03:50:20;100813.63;;;1.69;67.80
39405;BME280;25121;51.090;17.038;2023-02-16T03:51:42;100811.72;;;1.71;67.81
39405;BME280;25121;51.090;17.038;2023-02-16T03:53:06;100815.00;;;1.75;68.01
39405;BME280;25121;51.090;17.038;2023-02-16T03:54:29;100807.66;;;1.66;67.83
39405;BME280;25121;51.090;17.038;2023-02-16T03:55:54;100817.75;;;1.73;67.57
39405;BME280;25121;51.090;17.038;2023-02-16T03:57:15;100820.22;;;1.77;67.88
39405;BME280;25121;51.090;17.038;2023-02-16T03:58:41;100810.75;;;1.72;67.82
39405;BME280;25121;51.090;17.038;2023-02-16T04:00:07;100807.34;;;1.70;67.64
39405;BME280;25121;51.090;17.038;2023-02-16T04:01:44;100811.81;;;1.70;67.75
39405;BME280;25121;51.090;17.038;2023-02-16T04:03:07;100821.91;;;1.78;67.56
39405;BME280;25121;51.090;17.038;2023-02-16T04:04:30;100822.88;;;1.77;67.47
39405;BME280;25121;51.090;17.038;2023-02-16T04:05:53;100821.06;;;1.77;67.59
39405;BME280;25121;51.090;17.038;2023-02-16T04:07:17;100805.66;;;1.69;67.45
39405;BME280;25121;51.090;17.038;2023-02-16T04:08:39;100815.09;;;1.73;67.54
39405;BME280;25121;51.090;17.038;2023-02-16T04:10:01;100823.72;;;1.77;67.50
39405;BME280;25121;51.090;17.038;2023-02-16T04:11:26;100811.72;;;1.71;67.63
39405;BME280;25121;51.090;17.038;2023-02-16T04:13:07;100812.44;;;1.73;67.71
39405;BME280;25121;51.090;17.038;2023-02-16T04:14:31;100813.00;;;1.79;67.50
39405;BME280;25121;51.090;17.038;2023-02-16T04:15:53;100809.06;;;1.71;67.63
39405;BME280;25121;51.090;17.038;2023-02-16T04:17:20;100806.22;;;1.75;67.81
39405;BME280;25121;51.090;17.038;2023-02-16T04:18:44;100814.91;;;1.77;67.67
39405;BME280;25121;51.090;17.038;2023-02-16T04:20:11;100814.16;;;1.75;67.67
39405;BME280;25121;51.090;17.038;2023-02-16T04:21:37;100815.00;;;1.75;67.70
39405;BME280;25121;51.090;17.038;2023-02-16T04:23:02;100811.91;;;1.68;67.51
39405;BME280;25121;51.090;17.038;2023-02-16T04:24:31;100817.88;;;1.72;67.69
39405;BME280;25121;51.090;17.038;2023-02-16T04:25:57;100807.34;;;1.70;67.79
39405;BME280;25121;51.090;17.038;2023-02-16T04:27:28;100816.16;;;1.71;67.26
39405;BME280;25121;51.090;17.038;2023-02-16T04:29:05;100814.47;;;1.70;67.42
39405;BME280;25121;51.090;17.038;2023-02-16T04:30:32;100808.50;;;1.66;67.61
39405;BME280;25121;51.090;17.038;2023-02-16T04:32:00;100807.56;;;1.67;67.49
39405;BME280;25121;51.090;17.038;2023-02-16T04:33:23;100808.41;;;1.68;67.51
39405;BME280;25121;51.090;17.038;2023-02-16T04:34:46;100819.56;;;1.73;67.47
39405;BME280;25121;51.090;17.038;2023-02-16T04:36:09;100815.22;;;1.72;67.34
39405;BME280;25121;51.090;17.038;2023-02-16T04:37:34;100813.63;;;1.69;67.56
39405;BME280;25121;51.090;17.038;2023-02-16T04:39:14;100809.38;;;1.67;67.61
39405;BME280;25121;51.090;17.038;2023-02-16T04:40:38;100816.28;;;1.69;67.58
39405;BME280;25121;51.090;17.038;2023-02-16T04:42:04;100793.84;;;1.61;67.32
39405;BME280;25121;51.090;17.038;2023-02-16T04:43:28;100798.03;;;1.65;67.33
39405;BME280;25121;51.090;17.038;2023-02-16T04:44:54;100812.75;;;1.69;67.61
39405;BME280;25121;51.090;17.038;2023-02-16T04:46:27;100810.22;;;1.67;67.58
39405;BME280;25121;51.090;17.038;2023-02-16T04:47:56;100795.38;;;1.65;67.57
39405;BME280;25121;51.090;17.038;2023-02-16T04:49:19;100811.06;;;1.68;67.50
39405;BME280;25121;51.090;17.038;2023-02-16T04:50:42;100799.91;;;1.63;67.52
39405;BME280;25121;51.090;17.038;2023-02-16T04:52:05;100812.75;;;1.69;67.34
39405;BME280;25121;51.090;17.038;2023-02-16T04:53:29;100794.28;;;1.55;67.44
39405;BME280;25121;51.090;17.038;2023-02-16T04:54:53;100792.38;;;1.57;67.34
39405;BME280;25121;51.090;17.038;2023-02-16T04:56:22;100794.91;;;1.58;67.38
39405;BME280;25121;51.090;17.038;2023-02-16T04:57:53;100803.19;;;1.66;67.45
39405;BME280;25121;51.090;17.038;2023-02-16T04:59:18;100806.72;;;1.67;67.15
39405;BME280;25121;51.090;17.038;2023-02-16T05:00:41;100801.50;;;1.65;67.54
39405;BME280;25121;51.090;17.038;2023-02-16T05:02:03;100802.34;;;1.66;67.24
39405;BME280;25121;51.090;17.038;2023-02-16T05:03:26;100791.34;;;1.59;67.50
39405;BME280;25121;51.090;17.038;2023-02-16T05:04:54;100791.22;;;1.61;67.40
39405;BME280;25121;51.090;17.038;2023-02-16T05:06:18;100786.22;;;1.56;67.59
39405;BME280;25121;51.090;17.038;2023-02-16T05:07:45;100781.78;;;1.57;67.58
39405;BME280;25121;51.090;17.038;2023-02-16T05:09:11;100791.13;;;1.62;67.40
39405;BME280;25121;51.090;17.038;2023-02-16T05:10:48;100791.34;;;1.59;67.45
39405;BME280;25121;51.090;17.038;2023-02-16T05:12:42;100809.47;;;1.65;67.73
39405;BME280;25121;51.090;17.038;2023-02-16T05:14:28;100801.50;;;1.65;67.61
39405;BME280;25121;51.090;17.038;2023-02-16T05:16:29;100790.38;;;1.60;67.47
39405;BME280;25121;51.090;17.038;2023-02-16T05:17:53;100798.94;;;1.64;67.66
39405;BME280;25121;51.090;17.038;2023-02-16T05:19:20;100795.75;;;1.59;67.53
39405;BME280;25121;51.090;17.038;2023-02-16T05:20:44;100806.19;;;1.62;67.40
39405;BME280;25121;51.090;17.038;2023-02-16T05:22:26;100785.66;;;1.51;67.58
39405;BME280;25121;51.090;17.038;2023-02-16T05:23:56;100781.13;;;1.53;67.47
39405;BME280;25121;51.090;17.038;2023-02-16T05:25:21;100787.94;;;1.57;67.68
39405;BME280;25121;51.090;17.038;2023-02-16T05:26:46;100793.22;;;1.57;67.30
39405;BME280;25121;51.090;17.038;2023-02-16T05:28:11;100792.06;;;1.61;67.61
39405;BME280;25121;51.090;17.038;2023-02-16T05:29:55;100777.63;;;1.53;67.94
39405;BME280;25121;51.090;17.038;2023-02-16T05:31:20;100775.06;;;1.51;67.67
39405;BME280;25121;51.090;17.038;2023-02-16T05:32:58;100787.09;;;1.57;67.67
39405;BME280;25121;51.090;17.038;2023-02-16T05:34:22;100786.97;;;1.58;67.53
39405;BME280;25121;51.090;17.038;2023-02-16T05:35:48;100791.00;;;1.64;67.72
39405;BME280;25121;51.090;17.038;2023-02-16T05:37:20;100793.09;;;1.59;67.49
39405;BME280;25121;51.090;17.038;2023-02-16T05:38:52;100786.22;;;1.56;67.66
39405;BME280;25121;51.090;17.038;2023-02-16T05:40:25;100793.22;;;1.57;67.83
39405;BME280;25121;51.090;17.038;2023-02-16T05:41:55;100784.72;;;1.52;67.97
39405;BME280;25121;51.090;17.038;2023-02-16T05:43:20;100794.06;;;1.58;67.88
39405;BME280;25121;51.090;17.038;2023-02-16T05:44:46;100805.41;;;1.60;67.69
39405;BME280;25121;51.090;17.038;2023-02-16T05:46:09;100795.97;;;1.56;67.76
39405;BME280;25121;51.090;17.038;2023-02-16T05:47:31;100790.97;;;1.51;67.60
39405;BME280;25121;51.090;17.038;2023-02-16T05:49:00;100802.09;;;1.56;67.64
39405;BME280;25121;51.090;17.038;2023-02-16T05:50:22;100809.56;;;1.64;67.58
39405;BME280;25121;51.090;17.038;2023-02-16T05:51:46;100807.78;;;1.64;67.58
39405;BME280;25121;51.090;17.038;2023-02-16T05:53:08;100792.56;;;1.54;67.45
39405;BME280;25121;51.090;17.038;2023-02-16T05:54:31;100796.94;;;1.55;67.89
39405;BME280;25121;51.090;17.038;2023-02-16T05:55:52;100801.81;;;1.61;67.37
39405;BME280;25121;51.090;17.038;2023-02-16T05:57:15;100803.81;;;1.57;67.38
39405;BME280;25121;51.090;17.038;2023-02-16T05:58:44;100806.34;;;1.59;67.46
39405;BME280;25121;51.090;17.038;2023-02-16T06:00:34;100800.97;;;1.60;67.49
39405;BME280;25121;51.090;17.038;2023-02-16T06:02:02;100806.34;;;1.59;67.67
39405;BME280;25121;51.090;17.038;2023-02-16T06:03:28;100814.00;;;1.63;67.41
39405;BME280;25121;51.090;17.038;2023-02-16T06:04:53;100808.16;;;1.58;67.24
39405;BME280;25121;51.090;17.038;2023-02-16T06:06:22;100821.88;;;1.65;67.23
39405;BME280;25121;51.090;17.038;2023-02-16T06:07:52;100819.31;;;1.63;67.26
39405;BME280;25121;51.090;17.038;2023-02-16T06:09:24;100819.31;;;1.63;67.37
39405;BME280;25121;51.090;17.038;2023-02-16T06:10:48;100809.75;;;1.61;67.46
39405;BME280;25121;51.090;17.038;2023-02-16T06:12:13;100800.41;;;1.55;67.37
39405;BME280;25121;51.090;17.038;2023-02-16T06:13:39;100825.16;;;1.68;67.37
39405;BME280;25121;51.090;17.038;2023-02-16T06:15:01;100823.47;;;1.67;67.54
39405;BME280;25121;51.090;17.038;2023-02-16T06:16:25;100821.75;;;1.66;67.35
39405;BME280;25121;51.090;17.038;2023-02-16T06:17:47;100811.47;;;1.62;67.27
39405;BME280;25121;51.090;17.038;2023-02-16T06:19:13;100810.50;;;1.63;67.40
39405;BME280;25121;51.090;17.038;2023-02-16T06:20:56;100818.72;;;1.72;67.46
39405;BME280;25121;51.090;17.038;2023-02-16T06:22:35;100823.72;;;1.77;67.35
39405;BME280;25121;51.090;17.038;2023-02-16T06:24:10;100835.69;;;1.83;67.35
39405;BME280;25121;51.090;17.038;2023-02-16T06:25:42;100808.88;;;1.75;67.18
39405;BME280;25121;51.090;17.038;2023-02-16T06:27:14;100819.81;;;1.83;67.19
39405;BME280;25121;51.090;17.038;2023-02-16T06:30:18;100818.34;;;1.91;67.13
39405;BME280;25121;51.090;17.038;2023-02-16T06:31:49;100831.09;;;1.99;66.90
39405;BME280;25121;51.090;17.038;2023-02-16T06:33:16;100814.44;;;1.97;66.86
39405;BME280;25121;51.090;17.038;2023-02-16T06:34:59;100818.47;;;2.03;67.18
39405;BME280;25121;51.090;17.038;2023-02-16T06:36:31;100823.91;;;2.14;67.05
39405;BME280;25121;51.090;17.038;2023-02-16T06:38:01;100827.19;;;2.18;66.83
39405;BME280;25121;51.090;17.038;2023-02-16T06:39:32;100810.53;;;2.15;66.79
39405;BME280;25121;51.090;17.038;2023-02-16T06:41:10;100806.00;;;2.18;66.91
39405;BME280;25121;51.090;17.038;2023-02-16T06:42:52;100817.88;;;2.25;66.69
39405;BME280;25121;51.090;17.038;2023-02-16T06:44:49;100821.59;;;2.35;66.52
39405;BME280;25121;51.090;17.038;2023-02-16T06:46:19;100809.31;;;2.34;66.36
39405;BME280;25121;51.090;17.038;2023-02-16T06:47:47;100808.88;;;2.40;66.21
39405;BME280;25121;51.090;17.038;2023-02-16T06:49:11;100817.91;;;2.50;66.17
39405;BME280;25121;51.090;17.038;2023-02-16T06:50:38;100825.13;;;2.61;65.91
39405;BME280;25121;51.090;17.038;2023-02-16T06:52:11;100818.84;;;2.62;66.01
39405;BME280;25121;51.090;17.038;2023-02-16T06:53:35;100807.19;;;2.65;65.93
39405;BME280;25121;51.090;17.038;2023-02-16T06:55:02;100805.91;;;2.70;65.69
39405;BME280;25121;51.090;17.038;2023-02-16T06:56:27;100805.56;;;2.75;65.66
39405;BME280;25121;51.090;17.038;2023-02-16T06:58:14;100810.34;;;2.83;65.68
39405;BME280;25121;51.090;17.038;2023-02-16T06:59:39;100806.53;;;2.87;65.55
39405;BME280;25121;51.090;17.038;2023-02-16T07:01:04;100821.47;;;3.00;65.48
39405;BME280;25121;51.090;17.038;2023-02-16T07:02:28;100825.72;;;3.03;65.38
39405;BME280;25121;51.090;17.038;2023-02-16T07:03:52;100825.38;;;3.08;65.33
39405;BME280;25121;51.090;17.038;2023-02-16T07:05:37;100813.81;;;3.09;65.12
39405;BME280;25121;51.090;17.038;2023-02-16T07:07:13;100828.25;;;3.17;64.92
39405;BME280;25121;51.090;17.038;2023-02-16T07:08:45;100830.56;;;3.22;64.83
39405;BME280;25121;51.090;17.038;2023-02-16T07:10:10;100834.38;;;3.31;64.96
39405;BME280;25121;51.090;17.038;2023-02-16T07:11:38;100829.78;;;3.33;64.74
39405;BME280;25121;51.090;17.038;2023-02-16T07:13:09;100827.66;;;3.38;64.78
39405;BME280;25121;51.090;17.038;2023-02-16T07:14:52;100815.97;;;3.40;64.74
39405;BME280;25121;51.090;17.038;2023-02-16T07:16:18;100829.97;;;3.55;64.62
39405;BME280;25121;51.090;17.038;2023-02-16T07:17:57;100825.16;;;3.60;64.52
39405;BME280;25121;51.090;17.038;2023-02-16T07:19:23;100829.25;;;3.64;64.39
39405;BME280;25121;51.090;17.038;2023-02-16T07:21:08;100813.31;;;3.64;64.29
39405;BME280;25121;51.090;17.038;2023-02-16T07:22:38;100816.88;;;3.76;64.05
39405;BME280;25121;51.090;17.038;2023-02-16T07:24:03;100821.53;;;3.85;63.85
39405;BME280;25121;51.090;17.038;2023-02-16T07:25:37;100831.25;;;3.98;63.85
39405;BME280;25121;51.090;17.038;2023-02-16T07:27:02;100800.63;;;3.92;63.76
39405;BME280;25121;51.090;17.038;2023-02-16T07:28:33;100814.81;;;4.04;63.89
39405;BME280;25121;51.090;17.038;2023-02-16T07:30:09;100815.72;;;4.16;63.54
39405;BME280;25121;51.090;17.038;2023-02-16T07:31:46;100804.09;;;4.17;63.52
39405;BME280;25121;51.090;17.038;2023-02-16T07:33:14;100824.09;;;4.34;63.40
39405;BME280;25121;51.090;17.038;2023-02-16T07:34:43;100814.28;;;4.34;63.18
39405;BME280;25121;51.090;17.038;2023-02-16T07:36:11;100813.00;;;4.40;62.97
39405;BME280;25121;51.090;17.038;2023-02-16T07:37:47;100825.34;;;4.52;62.82
39405;BME280;25121;51.090;17.038;2023-02-16T07:45:28;100808.69;;;4.72;62.27
39405;BME280;25121;51.090;17.038;2023-02-16T07:51:28;100800.81;;;4.93;62.39
39405;BME280;25121;51.090;17.038;2023-02-16T07:53:00;100816.28;;;5.11;62.23
39405;BME280;25121;51.090;17.038;2023-02-16T07:54:25;100820.75;;;5.22;62.02
39405;BME280;25121;51.090;17.038;2023-02-16T07:55:54;100814.69;;;5.31;62.10
39405;BME280;25121;51.090;17.038;2023-02-16T07:57:20;100812.50;;;5.36;61.85
39405;BME280;25121;51.090;17.038;2023-02-16T07:58:44;100817.56;;;5.50;62.23
39405;BME280;25121;51.090;17.038;2023-02-16T08:00:08;100814.00;;;5.61;61.64
39405;BME280;25121;51.090;17.038;2023-02-16T08:01:33;100808.94;;;5.69;61.68
39405;BME280;25121;51.090;17.038;2023-02-16T08:02:57;100812.53;;;5.79;61.56
39405;BME280;25121;51.090;17.038;2023-02-16T08:04:25;100806.28;;;5.90;61.46
39405;BME280;25121;51.090;17.038;2023-02-16T08:06:04;100804.56;;;6.00;61.50
39405;BME280;25121;51.090;17.038;2023-02-16T08:07:35;100788.44;;;6.02;60.88
39405;BME280;25121;51.090;17.038;2023-02-16T08:09:09;100805.81;;;6.17;60.71
39405;BME280;25121;51.090;17.038;2023-02-16T08:10:37;100803.34;;;6.25;60.60
39405;BME280;25121;51.090;17.038;2023-02-16T08:12:07;100806.22;;;6.34;60.36
39405;BME280;25121;51.090;17.038;2023-02-16T08:13:34;100802.19;;;6.39;60.44
39405;BME280;25121;51.090;17.038;2023-02-16T08:15:06;100805.03;;;6.47;60.10
39405;BME280;25121;51.090;17.038;2023-02-16T08:16:38;100799.19;;;6.54;60.11
39405;BME280;25121;51.090;17.038;2023-02-16T08:18:01;100803.88;;;6.61;59.83
39405;BME280;25121;51.090;17.038;2023-02-16T08:19:24;100796.03;;;6.69;59.76
39405;BME280;25121;51.090;17.038;2023-02-16T08:22:07;100798.75;;;6.79;59.38
39405;BME280;25121;51.090;17.038;2023-02-16T08:23:37;100799.69;;;6.99;59.01
39405;BME280;25121;51.090;17.038;2023-02-16T08:25:46;100785.50;;;7.08;58.73
39405;BME280;25121;51.090;17.038;2023-02-16T08:27:39;100794.13;;;7.22;58.36
39405;BME280;25121;51.090;17.038;2023-02-16T08:36:11;100792.41;;;7.81;57.07
39405;BME280;25121;51.090;17.038;2023-02-16T08:38:50;100774.63;;;7.89;57.00
39405;BME280;25121;51.090;17.038;2023-02-16T13:15:20;100687.59;;;10.91;49.67
39405;BME280;25121;51.090;17.038;2023-02-16T13:27:03;100686.69;;;10.83;50.37
39405;BME280;25121;51.090;17.038;2023-02-16T13:31:53;100675.25;;;10.72;50.43
39405;BME280;25121;51.090;17.038;2023-02-16T13:50:57;100650.50;;;10.26;51.35
39405;BME280;25121;51.090;17.038;2023-02-16T13:52:53;100653.09;;;10.18;51.45
39405;BME280;25121;51.090;17.038;2023-02-16T13:54:30;100658.66;;;10.17;51.50
39405;BME280;25121;51.090;17.038;2023-02-16T13:56:13;100652.72;;;10.05;51.61
39405;BME280;25121;51.090;17.038;2023-02-16T13:58:07;100665.63;;;10.01;51.97
39405;BME280;25121;51.090;17.038;2023-02-16T13:59:59;100668.78;;;9.97;52.09
39405;BME280;25121;51.090;17.038;2023-02-16T14:01:39;100663.88;;;9.92;52.05
39405;BME280;25121;51.090;17.038;2023-02-16T14:03:34;100660.91;;;9.77;52.42
39405;BME280;25121;51.090;17.038;2023-02-16T14:05:03;100658.84;;;9.71;52.31
39405;BME280;25121;51.090;17.038;2023-02-16T14:06:31;100663.22;;;9.72;52.33